Frewsburg, New York
Current Conditions -  °F | °C
As of 11:35 PM on Wednesday 28 Jan 2015 (Local Time) from KJHW Reporting Station
Clear Clear  
Wind Chill:   Ceiling: Unl
Heat Index: 12°   Visibility: 10mi
Dew Point:   Wind: 7mph
Humidity: 62%   Direction: 180°S
Pressure: 30.2"   Gusts: NA
Location:  42.05°N, 79.16°W
Report Text: KJHW 290435Z 18006KT 10SM CLR M11/M17 A3020 RMK AO1
Loading
Personal Weather Stations






























Interactive Weather Map New forecast layout! Learn more

10-Day Weather Forecast

Advertisements
Track Severe Weather on mobile